sensor_id;sensor_type;location;lat;lon;timestamp;P1;durP1;ratioP1;P2;durP2;ratioP2
35757;SDS011;21879;50.110;18.900;2023-06-22T00:04:08;10.90;;;7.70;;
35757;SDS011;21879;50.110;18.900;2023-06-22T00:24:59;9.30;;;6.90;;
35757;SDS011;21879;50.110;18.900;2023-06-22T00:35:25;8.00;;;5.90;;
35757;SDS011;21879;50.110;18.900;2023-06-22T00:45:52;11.50;;;6.90;;
35757;SDS011;21879;50.110;18.900;2023-06-22T00:56:20;10.70;;;6.60;;
35757;SDS011;21879;50.110;18.900;2023-06-22T01:06:50;9.60;;;5.30;;
35757;SDS011;21879;50.110;18.900;2023-06-22T01:17:27;10.00;;;5.20;;
35757;SDS011;21879;50.110;18.900;2023-06-22T01:27:59;11.50;;;6.60;;
35757;SDS011;21879;50.110;18.900;2023-06-22T01:38:38;10.70;;;6.00;;
35757;SDS011;21879;50.110;18.900;2023-06-22T01:49:06;8.00;;;5.40;;
35757;SDS011;21879;50.110;18.900;2023-06-22T02:09:58;11.30;;;5.40;;
35757;SDS011;21879;50.110;18.900;2023-06-22T02:20:26;9.80;;;5.60;;
35757;SDS011;21879;50.110;18.900;2023-06-22T02:30:53;9.70;;;5.50;;
35757;SDS011;21879;50.110;18.900;2023-06-22T02:41:19;8.80;;;5.80;;
35757;SDS011;21879;50.110;18.900;2023-06-22T03:02:11;9.70;;;5.70;;
35757;SDS011;21879;50.110;18.900;2023-06-22T03:12:37;11.00;;;6.10;;
35757;SDS011;21879;50.110;18.900;2023-06-22T03:23:04;9.20;;;5.70;;
35757;SDS011;21879;50.110;18.900;2023-06-22T03:33:30;8.50;;;5.60;;
35757;SDS011;21879;50.110;18.900;2023-06-22T03:43:56;9.50;;;5.70;;
35757;SDS011;21879;50.110;18.900;2023-06-22T03:54:22;10.40;;;5.50;;
35757;SDS011;21879;50.110;18.900;2023-06-22T04:04:48;8.00;;;4.40;;
35757;SDS011;21879;50.110;18.900;2023-06-22T04:25:40;11.00;;;5.40;;
35757;SDS011;21879;50.110;18.900;2023-06-22T04:46:30;13.00;;;6.70;;
35757;SDS011;21879;50.110;18.900;2023-06-22T04:57:00;15.90;;;8.70;;
35757;SDS011;21879;50.110;18.900;2023-06-22T05:07:27;14.50;;;9.70;;
35757;SDS011;21879;50.110;18.900;2023-06-22T05:28:18;13.40;;;10.90;;
35757;SDS011;21879;50.110;18.900;2023-06-22T05:38:46;22.80;;;17.90;;
35757;SDS011;21879;50.110;18.900;2023-06-22T05:49:12;17.40;;;15.00;;
35757;SDS011;21879;50.110;18.900;2023-06-22T05:59:39;20.50;;;17.10;;
35757;SDS011;21879;50.110;18.900;2023-06-22T06:10:06;19.40;;;17.30;;
35757;SDS011;21879;50.110;18.900;2023-06-22T06:20:33;20.80;;;18.00;;
35757;SDS011;21879;50.110;18.900;2023-06-22T06:30:59;21.30;;;17.50;;
35757;SDS011;21879;50.110;18.900;2023-06-22T06:41:26;19.60;;;17.40;;
35757;SDS011;21879;50.110;18.900;2023-06-22T06:51:52;20.50;;;17.40;;
35757;SDS011;21879;50.110;18.900;2023-06-22T07:02:19;20.50;;;18.30;;
35757;SDS011;21879;50.110;18.900;2023-06-22T07:12:44;18.10;;;16.30;;
35757;SDS011;21879;50.110;18.900;2023-06-22T07:23:11;21.50;;;18.60;;
35757;SDS011;21879;50.110;18.900;2023-06-22T07:33:37;19.40;;;17.40;;
35757;SDS011;21879;50.110;18.900;2023-06-22T07:44:03;21.60;;;19.40;;
35757;SDS011;21879;50.110;18.900;2023-06-22T07:54:29;20.40;;;18.30;;
35757;SDS011;21879;50.110;18.900;2023-06-22T08:04:55;19.00;;;16.90;;
35757;SDS011;21879;50.110;18.900;2023-06-22T08:15:38;17.90;;;16.10;;
35757;SDS011;21879;50.110;18.900;2023-06-22T08:26:04;19.00;;;17.10;;
35757;SDS011;21879;50.110;18.900;2023-06-22T08:36:30;15.90;;;14.30;;
35757;SDS011;21879;50.110;18.900;2023-06-22T08:47:05;18.60;;;16.80;;
35757;SDS011;21879;50.110;18.900;2023-06-22T08:57:31;14.60;;;12.90;;
35757;SDS011;21879;50.110;18.900;2023-06-22T09:07:58;16.70;;;14.60;;
35757;SDS011;21879;50.110;18.900;2023-06-22T09:18:24;20.30;;;14.60;;
35757;SDS011;21879;50.110;18.900;2023-06-22T09:28:50;23.70;;;15.40;;
35757;SDS011;21879;50.110;18.900;2023-06-22T09:39:17;16.50;;;13.40;;
35757;SDS011;21879;50.110;18.900;2023-06-22T09:49:43;14.90;;;13.30;;
35757;SDS011;21879;50.110;18.900;2023-06-22T10:00:12;14.70;;;12.20;;
35757;SDS011;21879;50.110;18.900;2023-06-22T10:10:40;13.10;;;11.50;;
35757;SDS011;21879;50.110;18.900;2023-06-22T10:21:06;12.50;;;11.20;;
35757;SDS011;21879;50.110;18.900;2023-06-22T10:31:32;12.70;;;10.60;;
35757;SDS011;21879;50.110;18.900;2023-06-22T10:41:59;11.80;;;10.50;;
35757;SDS011;21879;50.110;18.900;2023-06-22T10:52:25;10.50;;;9.40;;
35757;SDS011;21879;50.110;18.900;2023-06-22T11:02:51;11.50;;;9.90;;
35757;SDS011;21879;50.110;18.900;2023-06-22T11:13:17;11.90;;;10.20;;
35757;SDS011;21879;50.110;18.900;2023-06-22T11:23:44;11.50;;;9.70;;
35757;SDS011;21879;50.110;18.900;2023-06-22T11:34:11;12.00;;;10.30;;
35757;SDS011;21879;50.110;18.900;2023-06-22T11:44:37;12.00;;;10.90;;
35757;SDS011;21879;50.110;18.900;2023-06-22T11:55:04;11.20;;;10.10;;
35757;SDS011;21879;50.110;18.900;2023-06-22T12:05:31;14.00;;;12.60;;
35757;SDS011;21879;50.110;18.900;2023-06-22T12:15:57;13.20;;;11.40;;
35757;SDS011;21879;50.110;18.900;2023-06-22T12:26:23;12.60;;;10.20;;
35757;SDS011;21879;50.110;18.900;2023-06-22T12:36:49;11.10;;;10.00;;
35757;SDS011;21879;50.110;18.900;2023-06-22T12:47:17;11.80;;;10.60;;
35757;SDS011;21879;50.110;18.900;2023-06-22T12:57:43;11.20;;;10.10;;
35757;SDS011;21879;50.110;18.900;2023-06-22T13:08:09;10.60;;;9.40;;
35757;SDS011;21879;50.110;18.900;2023-06-22T13:18:35;12.50;;;11.20;;
35757;SDS011;21879;50.110;18.900;2023-06-22T13:29:01;13.20;;;11.60;;
35757;SDS011;21879;50.110;18.900;2023-06-22T13:39:27;10.60;;;9.30;;
35757;SDS011;21879;50.110;18.900;2023-06-22T13:49:53;11.50;;;9.60;;
35757;SDS011;21879;50.110;18.900;2023-06-22T14:00:20;10.10;;;9.10;;
35757;SDS011;21879;50.110;18.900;2023-06-22T14:10:47;11.40;;;10.30;;
35757;SDS011;21879;50.110;18.900;2023-06-22T14:21:13;10.30;;;9.10;;
35757;SDS011;21879;50.110;18.900;2023-06-22T14:31:39;11.90;;;10.70;;
35757;SDS011;21879;50.110;18.900;2023-06-22T14:42:09;9.90;;;8.90;;
35757;SDS011;21879;50.110;18.900;2023-06-22T14:52:35;11.50;;;10.30;;
35757;SDS011;21879;50.110;18.900;2023-06-22T15:03:01;12.00;;;9.80;;
35757;SDS011;21879;50.110;18.900;2023-06-22T15:13:31;10.60;;;9.20;;
35757;SDS011;21879;50.110;18.900;2023-06-22T15:23:58;10.00;;;8.90;;
35757;SDS011;21879;50.110;18.900;2023-06-22T15:34:24;11.00;;;8.60;;
35757;SDS011;21879;50.110;18.900;2023-06-22T15:44:50;10.00;;;8.10;;
35757;SDS011;21879;50.110;18.900;2023-06-22T15:55:16;12.40;;;9.00;;
35757;SDS011;21879;50.110;18.900;2023-06-22T16:05:43;8.50;;;6.70;;
35757;SDS011;21879;50.110;18.900;2023-06-22T16:16:08;8.50;;;7.60;;
35757;SDS011;21879;50.110;18.900;2023-06-22T16:26:39;8.70;;;7.80;;
35757;SDS011;21879;50.110;18.900;2023-06-22T16:37:06;8.10;;;7.10;;
35757;SDS011;21879;50.110;18.900;2023-06-22T16:47:32;10.10;;;7.80;;
35757;SDS011;21879;50.110;18.900;2023-06-22T16:57:59;12.40;;;9.20;;
35757;SDS011;21879;50.110;18.900;2023-06-22T17:08:27;10.40;;;9.30;;
35757;SDS011;21879;50.110;18.900;2023-06-22T17:18:56;9.50;;;8.50;;
35757;SDS011;21879;50.110;18.900;2023-06-22T17:29:29;12.90;;;9.40;;
35757;SDS011;21879;50.110;18.900;2023-06-22T17:39:59;23.50;;;13.30;;
35757;SDS011;21879;50.110;18.900;2023-06-22T17:50:27;14.90;;;11.80;;
35757;SDS011;21879;50.110;18.900;2023-06-22T18:00:54;13.50;;;10.40;;
35757;SDS011;21879;50.110;18.900;2023-06-22T18:11:20;11.40;;;10.20;;
35757;SDS011;21879;50.110;18.900;2023-06-22T18:21:49;13.10;;;10.70;;
35757;SDS011;21879;50.110;18.900;2023-06-22T18:32:15;11.80;;;10.50;;
35757;SDS011;21879;50.110;18.900;2023-06-22T18:42:44;12.10;;;10.80;;
35757;SDS011;21879;50.110;18.900;2023-06-22T18:53:17;13.70;;;11.50;;
35757;SDS011;21879;50.110;18.900;2023-06-22T19:03:50;14.30;;;11.30;;
35757;SDS011;21879;50.110;18.900;2023-06-22T19:14:20;13.50;;;12.10;;
35757;SDS011;21879;50.110;18.900;2023-06-22T19:24:49;15.20;;;13.30;;
35757;SDS011;21879;50.110;18.900;2023-06-22T19:35:16;13.40;;;12.00;;
35757;SDS011;21879;50.110;18.900;2023-06-22T19:45:43;13.80;;;12.30;;
35757;SDS011;21879;50.110;18.900;2023-06-22T19:56:09;14.20;;;11.50;;
35757;SDS011;21879;50.110;18.900;2023-06-22T20:06:35;16.30;;;12.40;;
35757;SDS011;21879;50.110;18.900;2023-06-22T20:17:01;14.70;;;12.80;;
35757;SDS011;21879;50.110;18.900;2023-06-22T20:27:32;13.70;;;11.30;;
35757;SDS011;21879;50.110;18.900;2023-06-22T20:37:58;12.10;;;10.90;;
35757;SDS011;21879;50.110;18.900;2023-06-22T20:48:24;11.60;;;10.30;;
35757;SDS011;21879;50.110;18.900;2023-06-22T20:59:01;12.70;;;11.50;;
35757;SDS011;21879;50.110;18.900;2023-06-22T21:09:27;11.50;;;10.30;;
35757;SDS011;21879;50.110;18.900;2023-06-22T21:20:10;11.40;;;10.20;;
35757;SDS011;21879;50.110;18.900;2023-06-22T21:30:36;12.20;;;10.90;;
35757;SDS011;21879;50.110;18.900;2023-06-22T21:41:02;12.00;;;10.50;;
35757;SDS011;21879;50.110;18.900;2023-06-22T22:01:54;12.20;;;10.40;;
35757;SDS011;21879;50.110;18.900;2023-06-22T22:12:21;11.60;;;10.50;;
35757;SDS011;21879;50.110;18.900;2023-06-22T22:22:47;12.00;;;10.80;;
35757;SDS011;21879;50.110;18.900;2023-06-22T22:33:12;11.20;;;10.00;;
35757;SDS011;21879;50.110;18.900;2023-06-22T22:43:39;11.30;;;10.10;;
35757;SDS011;21879;50.110;18.900;2023-06-22T22:54:05;12.60;;;11.30;;
35757;SDS011;21879;50.110;18.900;2023-06-22T23:14:55;12.30;;;10.90;;
35757;SDS011;21879;50.110;18.900;2023-06-22T23:25:21;12.50;;;10.50;;
35757;SDS011;21879;50.110;18.900;2023-06-22T23:35:48;11.80;;;10.50;;
35757;SDS011;21879;50.110;18.900;2023-06-22T23:46:14;13.60;;;11.10;;
35757;SDS011;21879;50.110;18.900;2023-06-22T23:56:43;12.70;;;11.30;;
